sensor_id;sensor_type;location;lat;lon;timestamp;P1;durP1;ratioP1;P2;durP2;ratioP2
38629;SDS011;24384;51.988;4.644;2023-09-18T00:00:43;30.50;;;24.42;;
38629;SDS011;24384;51.988;4.644;2023-09-18T00:03:09;29.38;;;23.33;;
38629;SDS011;24384;51.988;4.644;2023-09-18T00:05:35;31.60;;;26.38;;
38629;SDS011;24384;51.988;4.644;2023-09-18T00:08:00;31.10;;;24.50;;
38629;SDS011;24384;51.988;4.644;2023-09-18T00:10:27;31.52;;;23.55;;
38629;SDS011;24384;51.988;4.644;2023-09-18T00:12:53;29.30;;;23.70;;
38629;SDS011;24384;51.988;4.644;2023-09-18T00:15:19;27.98;;;24.05;;
38629;SDS011;24384;51.988;4.644;2023-09-18T00:17:44;28.88;;;24.70;;
38629;SDS011;24384;51.988;4.644;2023-09-18T00:20:10;30.52;;;23.85;;
38629;SDS011;24384;51.988;4.644;2023-09-18T00:22:35;29.95;;;22.83;;
38629;SDS011;24384;51.988;4.644;2023-09-18T00:25:01;28.90;;;24.08;;
38629;SDS011;24384;51.988;4.644;2023-09-18T00:27:29;28.40;;;24.45;;
38629;SDS011;24384;51.988;4.644;2023-09-18T00:29:54;34.33;;;24.10;;
38629;SDS011;24384;51.988;4.644;2023-09-18T00:32:20;29.25;;;24.75;;
38629;SDS011;24384;51.988;4.644;2023-09-18T00:34:45;32.40;;;25.95;;
38629;SDS011;24384;51.988;4.644;2023-09-18T00:37:10;33.65;;;27.27;;
38629;SDS011;24384;51.988;4.644;2023-09-18T00:39:37;30.75;;;24.05;;
38629;SDS011;24384;51.988;4.644;2023-09-18T00:42:03;28.17;;;24.75;;
38629;SDS011;24384;51.988;4.644;2023-09-18T00:44:29;27.60;;;24.00;;
38629;SDS011;24384;51.988;4.644;2023-09-18T00:46:54;36.83;;;24.42;;
38629;SDS011;24384;51.988;4.644;2023-09-18T00:49:20;33.65;;;26.40;;
38629;SDS011;24384;51.988;4.644;2023-09-18T00:51:47;32.55;;;24.75;;
38629;SDS011;24384;51.988;4.644;2023-09-18T00:54:13;35.25;;;27.95;;
38629;SDS011;24384;51.988;4.644;2023-09-18T00:56:41;29.00;;;24.50;;
38629;SDS011;24384;51.988;4.644;2023-09-18T00:59:06;30.08;;;24.95;;
38629;SDS011;24384;51.988;4.644;2023-09-18T01:01:32;31.48;;;25.30;;
38629;SDS011;24384;51.988;4.644;2023-09-18T01:03:57;27.67;;;24.42;;
38629;SDS011;24384;51.988;4.644;2023-09-18T01:06:24;25.90;;;23.17;;
38629;SDS011;24384;51.988;4.644;2023-09-18T01:08:52;31.17;;;22.88;;
38629;SDS011;24384;51.988;4.644;2023-09-18T01:11:22;31.13;;;25.38;;
38629;SDS011;24384;51.988;4.644;2023-09-18T01:14:10;29.85;;;25.50;;
38629;SDS011;24384;51.988;4.644;2023-09-18T01:16:48;26.63;;;23.48;;
38629;SDS011;24384;51.988;4.644;2023-09-18T01:19:33;31.80;;;27.17;;
38629;SDS011;24384;51.988;4.644;2023-09-18T01:22:00;33.38;;;26.88;;
38629;SDS011;24384;51.988;4.644;2023-09-18T01:24:25;29.48;;;25.58;;
38629;SDS011;24384;51.988;4.644;2023-09-18T01:26:51;30.98;;;27.35;;
38629;SDS011;24384;51.988;4.644;2023-09-18T01:29:16;32.60;;;27.80;;
38629;SDS011;24384;51.988;4.644;2023-09-18T01:31:44;35.45;;;27.75;;
38629;SDS011;24384;51.988;4.644;2023-09-18T01:34:09;29.30;;;26.20;;
38629;SDS011;24384;51.988;4.644;2023-09-18T01:36:35;28.63;;;24.02;;
38629;SDS011;24384;51.988;4.644;2023-09-18T01:39:00;28.23;;;25.10;;
38629;SDS011;24384;51.988;4.644;2023-09-18T01:41:26;31.40;;;25.55;;
38629;SDS011;24384;51.988;4.644;2023-09-18T01:43:51;31.17;;;26.42;;
38629;SDS011;24384;51.988;4.644;2023-09-18T01:46:16;31.17;;;25.77;;
38629;SDS011;24384;51.988;4.644;2023-09-18T01:48:46;29.02;;;24.55;;
38629;SDS011;24384;51.988;4.644;2023-09-18T01:51:15;32.67;;;27.38;;
38629;SDS011;24384;51.988;4.644;2023-09-18T01:53:41;30.42;;;27.13;;
38629;SDS011;24384;51.988;4.644;2023-09-18T01:56:06;39.35;;;29.60;;
38629;SDS011;24384;51.988;4.644;2023-09-18T01:58:32;39.08;;;30.42;;
38629;SDS011;24384;51.988;4.644;2023-09-18T02:01:00;39.17;;;31.95;;
38629;SDS011;24384;51.988;4.644;2023-09-18T02:03:25;39.45;;;31.13;;
38629;SDS011;24384;51.988;4.644;2023-09-18T02:05:51;42.25;;;33.95;;
38629;SDS011;24384;51.988;4.644;2023-09-18T02:08:16;44.28;;;35.22;;
38629;SDS011;24384;51.988;4.644;2023-09-18T02:10:41;46.40;;;35.97;;
38629;SDS011;24384;51.988;4.644;2023-09-18T02:13:07;44.58;;;33.78;;
38629;SDS011;24384;51.988;4.644;2023-09-18T02:15:32;54.75;;;37.45;;
38629;SDS011;24384;51.988;4.644;2023-09-18T02:17:57;54.83;;;36.83;;
38629;SDS011;24384;51.988;4.644;2023-09-18T02:20:22;45.00;;;35.97;;
38629;SDS011;24384;51.988;4.644;2023-09-18T02:22:48;44.25;;;36.13;;
38629;SDS011;24384;51.988;4.644;2023-09-18T02:25:13;44.45;;;35.22;;
38629;SDS011;24384;51.988;4.644;2023-09-18T02:27:38;50.05;;;38.60;;
38629;SDS011;24384;51.988;4.644;2023-09-18T02:30:04;47.50;;;36.47;;
38629;SDS011;24384;51.988;4.644;2023-09-18T02:32:30;45.33;;;36.40;;
38629;SDS011;24384;51.988;4.644;2023-09-18T02:34:55;46.80;;;35.88;;
38629;SDS011;24384;51.988;4.644;2023-09-18T02:37:20;43.78;;;34.35;;
38629;SDS011;24384;51.988;4.644;2023-09-18T02:39:45;39.03;;;34.25;;
38629;SDS011;24384;51.988;4.644;2023-09-18T02:42:11;39.17;;;32.38;;
38629;SDS011;24384;51.988;4.644;2023-09-18T02:44:36;40.55;;;32.22;;
38629;SDS011;24384;51.988;4.644;2023-09-18T02:47:01;41.53;;;31.80;;
38629;SDS011;24384;51.988;4.644;2023-09-18T02:49:27;31.98;;;27.00;;
38629;SDS011;24384;51.988;4.644;2023-09-18T02:51:52;32.10;;;28.23;;
38629;SDS011;24384;51.988;4.644;2023-09-18T02:54:17;32.90;;;27.63;;
38629;SDS011;24384;51.988;4.644;2023-09-18T02:56:42;33.10;;;25.77;;
38629;SDS011;24384;51.988;4.644;2023-09-18T02:59:08;28.33;;;25.02;;
38629;SDS011;24384;51.988;4.644;2023-09-18T03:01:33;30.38;;;25.58;;
38629;SDS011;24384;51.988;4.644;2023-09-18T03:03:59;31.70;;;26.88;;
38629;SDS011;24384;51.988;4.644;2023-09-18T03:06:24;33.15;;;26.52;;
38629;SDS011;24384;51.988;4.644;2023-09-18T03:08:50;40.55;;;28.80;;
38629;SDS011;24384;51.988;4.644;2023-09-18T03:11:15;30.27;;;25.88;;
38629;SDS011;24384;51.988;4.644;2023-09-18T03:13:44;33.67;;;29.05;;
38629;SDS011;24384;51.988;4.644;2023-09-18T03:16:14;31.80;;;27.85;;
38629;SDS011;24384;51.988;4.644;2023-09-18T03:18:39;32.65;;;28.77;;
38629;SDS011;24384;51.988;4.644;2023-09-18T03:21:05;38.85;;;30.75;;
38629;SDS011;24384;51.988;4.644;2023-09-18T03:23:30;38.50;;;32.33;;
38629;SDS011;24384;51.988;4.644;2023-09-18T03:25:55;42.03;;;31.58;;
38629;SDS011;24384;51.988;4.644;2023-09-18T03:28:20;39.80;;;30.23;;
38629;SDS011;24384;51.988;4.644;2023-09-18T03:30:46;42.65;;;32.30;;
38629;SDS011;24384;51.988;4.644;2023-09-18T03:33:11;42.25;;;29.40;;
38629;SDS011;24384;51.988;4.644;2023-09-18T03:35:49;38.95;;;25.10;;
38629;SDS011;24384;51.988;4.644;2023-09-18T03:38:16;28.88;;;23.90;;
38629;SDS011;24384;51.988;4.644;2023-09-18T03:40:41;33.60;;;23.10;;
38629;SDS011;24384;51.988;4.644;2023-09-18T03:43:07;36.35;;;23.17;;
38629;SDS011;24384;51.988;4.644;2023-09-18T03:45:36;34.97;;;27.10;;
38629;SDS011;24384;51.988;4.644;2023-09-18T03:48:02;40.97;;;24.17;;
38629;SDS011;24384;51.988;4.644;2023-09-18T03:50:27;29.45;;;23.00;;
38629;SDS011;24384;51.988;4.644;2023-09-18T03:52:52;30.27;;;22.88;;
38629;SDS011;24384;51.988;4.644;2023-09-18T03:55:18;31.67;;;22.75;;
38629;SDS011;24384;51.988;4.644;2023-09-18T03:57:43;27.55;;;19.95;;
38629;SDS011;24384;51.988;4.644;2023-09-18T04:00:11;21.85;;;16.90;;
38629;SDS011;24384;51.988;4.644;2023-09-18T04:02:36;20.50;;;15.27;;
38629;SDS011;24384;51.988;4.644;2023-09-18T04:05:02;19.15;;;11.65;;
38629;SDS011;24384;51.988;4.644;2023-09-18T04:07:28;17.52;;;10.50;;
38629;SDS011;24384;51.988;4.644;2023-09-18T04:09:53;17.85;;;9.68;;
38629;SDS011;24384;51.988;4.644;2023-09-18T04:12:19;12.07;;;8.95;;
38629;SDS011;24384;51.988;4.644;2023-09-18T04:14:44;13.40;;;9.98;;
38629;SDS011;24384;51.988;4.644;2023-09-18T04:17:10;14.20;;;8.65;;
38629;SDS011;24384;51.988;4.644;2023-09-18T04:19:35;18.10;;;10.20;;
38629;SDS011;24384;51.988;4.644;2023-09-18T04:22:00;14.52;;;9.77;;
38629;SDS011;24384;51.988;4.644;2023-09-18T04:24:26;17.88;;;10.95;;
38629;SDS011;24384;51.988;4.644;2023-09-18T04:26:51;11.57;;;10.05;;
38629;SDS011;24384;51.988;4.644;2023-09-18T04:29:17;12.32;;;9.48;;
38629;SDS011;24384;51.988;4.644;2023-09-18T04:31:43;16.55;;;10.43;;
38629;SDS011;24384;51.988;4.644;2023-09-18T04:34:08;17.42;;;10.50;;
38629;SDS011;24384;51.988;4.644;2023-09-18T04:36:33;15.48;;;11.07;;
38629;SDS011;24384;51.988;4.644;2023-09-18T04:38:58;17.20;;;11.98;;
38629;SDS011;24384;51.988;4.644;2023-09-18T04:41:24;18.48;;;12.65;;
38629;SDS011;24384;51.988;4.644;2023-09-18T04:43:49;20.65;;;12.88;;
38629;SDS011;24384;51.988;4.644;2023-09-18T04:46:15;18.50;;;11.18;;
38629;SDS011;24384;51.988;4.644;2023-09-18T04:48:41;16.45;;;10.55;;
38629;SDS011;24384;51.988;4.644;2023-09-18T04:51:06;13.27;;;10.57;;
38629;SDS011;24384;51.988;4.644;2023-09-18T04:53:31;21.58;;;10.43;;
38629;SDS011;24384;51.988;4.644;2023-09-18T04:55:58;19.27;;;10.65;;
38629;SDS011;24384;51.988;4.644;2023-09-18T04:58:24;11.98;;;9.52;;
38629;SDS011;24384;51.988;4.644;2023-09-18T05:00:58;20.25;;;10.90;;
38629;SDS011;24384;51.988;4.644;2023-09-18T05:03:25;13.60;;;10.30;;
38629;SDS011;24384;51.988;4.644;2023-09-18T05:05:54;13.30;;;9.88;;
38629;SDS011;24384;51.988;4.644;2023-09-18T05:08:20;11.52;;;8.52;;
38629;SDS011;24384;51.988;4.644;2023-09-18T05:10:45;11.88;;;9.93;;
38629;SDS011;24384;51.988;4.644;2023-09-18T05:13:11;16.95;;;10.15;;
38629;SDS011;24384;51.988;4.644;2023-09-18T05:15:36;14.98;;;9.63;;
38629;SDS011;24384;51.988;4.644;2023-09-18T05:18:02;14.07;;;9.00;;
38629;SDS011;24384;51.988;4.644;2023-09-18T05:20:28;13.27;;;8.43;;
38629;SDS011;24384;51.988;4.644;2023-09-18T05:22:56;13.70;;;9.10;;
38629;SDS011;24384;51.988;4.644;2023-09-18T05:25:22;15.27;;;9.68;;
38629;SDS011;24384;51.988;4.644;2023-09-18T05:27:49;19.42;;;10.23;;
38629;SDS011;24384;51.988;4.644;2023-09-18T05:30:21;14.13;;;9.23;;
38629;SDS011;24384;51.988;4.644;2023-09-18T05:32:50;11.40;;;8.82;;
38629;SDS011;24384;51.988;4.644;2023-09-18T05:35:15;13.57;;;9.43;;
38629;SDS011;24384;51.988;4.644;2023-09-18T05:37:41;14.18;;;10.75;;
38629;SDS011;24384;51.988;4.644;2023-09-18T05:40:07;13.13;;;9.65;;
38629;SDS011;24384;51.988;4.644;2023-09-18T05:42:40;17.80;;;9.43;;
38629;SDS011;24384;51.988;4.644;2023-09-18T05:45:10;14.30;;;10.13;;
38629;SDS011;24384;51.988;4.644;2023-09-18T05:47:36;14.73;;;9.65;;
38629;SDS011;24384;51.988;4.644;2023-09-18T05:50:03;15.70;;;9.40;;
38629;SDS011;24384;51.988;4.644;2023-09-18T05:52:32;15.25;;;8.77;;
38629;SDS011;24384;51.988;4.644;2023-09-18T05:54:58;16.58;;;10.25;;
38629;SDS011;24384;51.988;4.644;2023-09-18T05:57:24;15.05;;;10.80;;
38629;SDS011;24384;51.988;4.644;2023-09-18T05:59:49;15.32;;;9.75;;
38629;SDS011;24384;51.988;4.644;2023-09-18T06:02:14;14.43;;;10.18;;
38629;SDS011;24384;51.988;4.644;2023-09-18T06:04:41;15.63;;;9.65;;
38629;SDS011;24384;51.988;4.644;2023-09-18T06:07:06;13.05;;;8.50;;
38629;SDS011;24384;51.988;4.644;2023-09-18T06:09:32;14.68;;;10.15;;
38629;SDS011;24384;51.988;4.644;2023-09-18T06:11:57;12.60;;;9.82;;
38629;SDS011;24384;51.988;4.644;2023-09-18T06:14:24;15.88;;;10.40;;
38629;SDS011;24384;51.988;4.644;2023-09-18T06:16:49;13.18;;;9.57;;
38629;SDS011;24384;51.988;4.644;2023-09-18T06:19:17;11.82;;;9.40;;
38629;SDS011;24384;51.988;4.644;2023-09-18T06:21:43;12.32;;;9.65;;
38629;SDS011;24384;51.988;4.644;2023-09-18T06:24:09;15.82;;;9.48;;
38629;SDS011;24384;51.988;4.644;2023-09-18T06:26:34;15.73;;;8.82;;
38629;SDS011;24384;51.988;4.644;2023-09-18T06:29:00;10.27;;;9.20;;
38629;SDS011;24384;51.988;4.644;2023-09-18T06:31:25;15.63;;;9.90;;
38629;SDS011;24384;51.988;4.644;2023-09-18T06:33:51;13.55;;;7.85;;
38629;SDS011;24384;51.988;4.644;2023-09-18T06:36:16;15.23;;;8.70;;
38629;SDS011;24384;51.988;4.644;2023-09-18T06:38:41;12.32;;;8.07;;
38629;SDS011;24384;51.988;4.644;2023-09-18T06:41:07;14.43;;;8.60;;
38629;SDS011;24384;51.988;4.644;2023-09-18T06:43:32;10.52;;;8.35;;
38629;SDS011;24384;51.988;4.644;2023-09-18T06:45:57;11.18;;;8.60;;
38629;SDS011;24384;51.988;4.644;2023-09-18T06:48:23;12.68;;;8.38;;
38629;SDS011;24384;51.988;4.644;2023-09-18T06:50:49;11.02;;;8.13;;
38629;SDS011;24384;51.988;4.644;2023-09-18T06:53:14;16.27;;;9.13;;
38629;SDS011;24384;51.988;4.644;2023-09-18T06:55:39;12.70;;;8.65;;
38629;SDS011;24384;51.988;4.644;2023-09-18T06:58:05;13.45;;;9.00;;
38629;SDS011;24384;51.988;4.644;2023-09-18T07:00:30;12.90;;;8.00;;
38629;SDS011;24384;51.988;4.644;2023-09-18T07:02:55;10.23;;;7.00;;
38629;SDS011;24384;51.988;4.644;2023-09-18T07:05:21;10.60;;;6.75;;
38629;SDS011;24384;51.988;4.644;2023-09-18T07:07:46;11.25;;;5.38;;
38629;SDS011;24384;51.988;4.644;2023-09-18T07:10:11;8.20;;;5.80;;
38629;SDS011;24384;51.988;4.644;2023-09-18T07:12:37;13.07;;;5.38;;
38629;SDS011;24384;51.988;4.644;2023-09-18T07:15:02;8.30;;;5.22;;
38629;SDS011;24384;51.988;4.644;2023-09-18T07:17:28;11.00;;;5.60;;
38629;SDS011;24384;51.988;4.644;2023-09-18T07:19:54;7.22;;;5.03;;
38629;SDS011;24384;51.988;4.644;2023-09-18T07:22:19;11.63;;;5.45;;
38629;SDS011;24384;51.988;4.644;2023-09-18T07:24:45;11.27;;;5.13;;
38629;SDS011;24384;51.988;4.644;2023-09-18T07:27:11;6.93;;;5.10;;
38629;SDS011;24384;51.988;4.644;2023-09-18T07:29:36;8.57;;;5.03;;
38629;SDS011;24384;51.988;4.644;2023-09-18T07:32:01;8.82;;;5.07;;
38629;SDS011;24384;51.988;4.644;2023-09-18T07:34:27;8.50;;;4.35;;
38629;SDS011;24384;51.988;4.644;2023-09-18T07:36:52;11.45;;;4.57;;
38629;SDS011;24384;51.988;4.644;2023-09-18T07:39:20;9.52;;;5.00;;
38629;SDS011;24384;51.988;4.644;2023-09-18T07:41:45;12.52;;;4.70;;
38629;SDS011;24384;51.988;4.644;2023-09-18T07:44:10;8.68;;;5.15;;
38629;SDS011;24384;51.988;4.644;2023-09-18T07:46:35;10.32;;;5.43;;
38629;SDS011;24384;51.988;4.644;2023-09-18T07:49:01;12.35;;;4.68;;
38629;SDS011;24384;51.988;4.644;2023-09-18T07:51:27;7.85;;;5.00;;
38629;SDS011;24384;51.988;4.644;2023-09-18T07:53:52;7.72;;;4.90;;
38629;SDS011;24384;51.988;4.644;2023-09-18T07:56:17;9.63;;;4.72;;
38629;SDS011;24384;51.988;4.644;2023-09-18T07:58:44;8.43;;;4.70;;
38629;SDS011;24384;51.988;4.644;2023-09-18T08:01:09;9.27;;;4.55;;
38629;SDS011;24384;51.988;4.644;2023-09-18T08:03:35;6.65;;;5.35;;
38629;SDS011;24384;51.988;4.644;2023-09-18T08:06:00;11.57;;;5.22;;
38629;SDS011;24384;51.988;4.644;2023-09-18T08:08:25;9.18;;;5.45;;
38629;SDS011;24384;51.988;4.644;2023-09-18T08:10:52;9.68;;;5.93;;
38629;SDS011;24384;51.988;4.644;2023-09-18T08:13:18;11.82;;;5.82;;
38629;SDS011;24384;51.988;4.644;2023-09-18T08:15:48;7.70;;;5.43;;
38629;SDS011;24384;51.988;4.644;2023-09-18T08:18:14;7.45;;;5.68;;
38629;SDS011;24384;51.988;4.644;2023-09-18T08:20:40;14.43;;;6.85;;
38629;SDS011;24384;51.988;4.644;2023-09-18T08:23:09;7.97;;;5.22;;
38629;SDS011;24384;51.988;4.644;2023-09-18T08:25:34;8.75;;;6.18;;
38629;SDS011;24384;51.988;4.644;2023-09-18T08:28:00;11.82;;;6.63;;
38629;SDS011;24384;51.988;4.644;2023-09-18T08:30:25;21.45;;;6.32;;
38629;SDS011;24384;51.988;4.644;2023-09-18T08:32:51;10.65;;;5.95;;
38629;SDS011;24384;51.988;4.644;2023-09-18T08:35:16;9.45;;;4.88;;
38629;SDS011;24384;51.988;4.644;2023-09-18T08:37:41;10.50;;;5.05;;
38629;SDS011;24384;51.988;4.644;2023-09-18T08:40:09;8.90;;;5.05;;
38629;SDS011;24384;51.988;4.644;2023-09-18T08:42:36;8.05;;;4.40;;
38629;SDS011;24384;51.988;4.644;2023-09-18T08:45:08;9.95;;;4.97;;
38629;SDS011;24384;51.988;4.644;2023-09-18T08:47:35;8.70;;;4.68;;
38629;SDS011;24384;51.988;4.644;2023-09-18T08:50:05;5.55;;;4.15;;
38629;SDS011;24384;51.988;4.644;2023-09-18T08:52:33;9.00;;;4.82;;
38629;SDS011;24384;51.988;4.644;2023-09-18T08:55:00;9.10;;;4.53;;
38629;SDS011;24384;51.988;4.644;2023-09-18T08:57:26;6.63;;;4.47;;
38629;SDS011;24384;51.988;4.644;2023-09-18T08:59:53;7.18;;;4.72;;
38629;SDS011;24384;51.988;4.644;2023-09-18T09:02:19;5.60;;;4.57;;
38629;SDS011;24384;51.988;4.644;2023-09-18T09:04:44;5.68;;;4.47;;
38629;SDS011;24384;51.988;4.644;2023-09-18T09:07:09;8.90;;;4.10;;
38629;SDS011;24384;51.988;4.644;2023-09-18T09:09:35;8.48;;;4.68;;
38629;SDS011;24384;51.988;4.644;2023-09-18T09:12:00;6.88;;;4.18;;
38629;SDS011;24384;51.988;4.644;2023-09-18T09:14:26;10.60;;;4.30;;
38629;SDS011;24384;51.988;4.644;2023-09-18T09:16:54;5.30;;;3.80;;
38629;SDS011;24384;51.988;4.644;2023-09-18T09:19:32;10.05;;;3.60;;
38629;SDS011;24384;51.988;4.644;2023-09-18T09:22:01;8.80;;;3.38;;
38629;SDS011;24384;51.988;4.644;2023-09-18T09:24:40;6.00;;;3.20;;
38629;SDS011;24384;51.988;4.644;2023-09-18T09:27:08;9.95;;;3.55;;
38629;SDS011;24384;51.988;4.644;2023-09-18T09:29:34;7.68;;;3.75;;
38629;SDS011;24384;51.988;4.644;2023-09-18T09:32:12;8.60;;;3.22;;
38629;SDS011;24384;51.988;4.644;2023-09-18T09:34:42;9.55;;;3.50;;
38629;SDS011;24384;51.988;4.644;2023-09-18T09:37:08;10.75;;;3.72;;
38629;SDS011;24384;51.988;4.644;2023-09-18T09:39:33;4.63;;;3.25;;
38629;SDS011;24384;51.988;4.644;2023-09-18T09:41:59;15.93;;;3.63;;
38629;SDS011;24384;51.988;4.644;2023-09-18T09:44:26;5.70;;;3.22;;
38629;SDS011;24384;51.988;4.644;2023-09-18T09:46:53;6.80;;;3.30;;
38629;SDS011;24384;51.988;4.644;2023-09-18T09:49:19;6.78;;;3.65;;
38629;SDS011;24384;51.988;4.644;2023-09-18T09:51:46;4.78;;;3.40;;
38629;SDS011;24384;51.988;4.644;2023-09-18T09:54:11;7.10;;;3.55;;
38629;SDS011;24384;51.988;4.644;2023-09-18T09:56:45;7.75;;;3.78;;
38629;SDS011;24384;51.988;4.644;2023-09-18T09:59:15;8.18;;;3.97;;
38629;SDS011;24384;51.988;4.644;2023-09-18T10:01:44;8.50;;;3.92;;
38629;SDS011;24384;51.988;4.644;2023-09-18T10:04:15;6.15;;;3.90;;
38629;SDS011;24384;51.988;4.644;2023-09-18T10:06:52;11.15;;;4.60;;
38629;SDS011;24384;51.988;4.644;2023-09-18T10:09:22;6.20;;;4.00;;
38629;SDS011;24384;51.988;4.644;2023-09-18T10:11:51;7.50;;;3.33;;
38629;SDS011;24384;51.988;4.644;2023-09-18T10:14:22;7.57;;;3.17;;
38629;SDS011;24384;51.988;4.644;2023-09-18T10:16:55;10.30;;;3.33;;
38629;SDS011;24384;51.988;4.644;2023-09-18T10:24:37;4.43;;;3.30;;
38629;SDS011;24384;51.988;4.644;2023-09-18T10:27:06;6.70;;;3.53;;
38629;SDS011;24384;51.988;4.644;2023-09-18T10:29:34;6.15;;;3.67;;
38629;SDS011;24384;51.988;4.644;2023-09-18T10:32:05;7.97;;;4.15;;
38629;SDS011;24384;51.988;4.644;2023-09-18T10:34:34;5.53;;;3.30;;
38629;SDS011;24384;51.988;4.644;2023-09-18T10:37:01;3.65;;;2.65;;
38629;SDS011;24384;51.988;4.644;2023-09-18T10:39:38;6.75;;;3.50;;
38629;SDS011;24384;51.988;4.644;2023-09-18T10:42:07;5.68;;;2.97;;
38629;SDS011;24384;51.988;4.644;2023-09-18T10:44:33;5.65;;;2.83;;
38629;SDS011;24384;51.988;4.644;2023-09-18T10:47:00;7.38;;;2.95;;
38629;SDS011;24384;51.988;4.644;2023-09-18T10:49:27;6.47;;;3.30;;
38629;SDS011;24384;51.988;4.644;2023-09-18T10:51:54;7.15;;;2.88;;
38629;SDS011;24384;51.988;4.644;2023-09-18T10:54:20;4.25;;;2.67;;
38629;SDS011;24384;51.988;4.644;2023-09-18T10:56:47;10.98;;;3.38;;
38629;SDS011;24384;51.988;4.644;2023-09-18T10:59:13;5.50;;;2.72;;
38629;SDS011;24384;51.988;4.644;2023-09-18T11:01:39;8.75;;;3.67;;
38629;SDS011;24384;51.988;4.644;2023-09-18T11:04:05;12.40;;;3.03;;
38629;SDS011;24384;51.988;4.644;2023-09-18T11:09:41;5.78;;;3.28;;
38629;SDS011;24384;51.988;4.644;2023-09-18T11:12:06;4.50;;;3.00;;
38629;SDS011;24384;51.988;4.644;2023-09-18T11:17:27;9.88;;;4.40;;
38629;SDS011;24384;51.988;4.644;2023-09-18T11:20:08;8.98;;;4.20;;
38629;SDS011;24384;51.988;4.644;2023-09-18T11:22:34;8.15;;;4.30;;
38629;SDS011;24384;51.988;4.644;2023-09-18T11:28:05;7.72;;;3.45;;
38629;SDS011;24384;51.988;4.644;2023-09-18T11:30:37;11.82;;;3.78;;
38629;SDS011;24384;51.988;4.644;2023-09-18T11:33:04;7.80;;;3.90;;
38629;SDS011;24384;51.988;4.644;2023-09-18T11:35:31;6.57;;;3.72;;
38629;SDS011;24384;51.988;4.644;2023-09-18T11:38:08;8.52;;;4.03;;
38629;SDS011;24384;51.988;4.644;2023-09-18T11:40:35;4.38;;;3.20;;
38629;SDS011;24384;51.988;4.644;2023-09-18T11:43:18;7.00;;;4.07;;
38629;SDS011;24384;51.988;4.644;2023-09-18T11:45:49;9.60;;;3.65;;
38629;SDS011;24384;51.988;4.644;2023-09-18T11:48:16;6.80;;;3.40;;
38629;SDS011;24384;51.988;4.644;2023-09-18T11:50:42;10.60;;;3.65;;
38629;SDS011;24384;51.988;4.644;2023-09-18T11:53:09;6.97;;;3.88;;
38629;SDS011;24384;51.988;4.644;2023-09-18T11:55:37;4.25;;;3.05;;
38629;SDS011;24384;51.988;4.644;2023-09-18T11:58:04;8.32;;;3.22;;
38629;SDS011;24384;51.988;4.644;2023-09-18T12:00:31;8.10;;;3.45;;
38629;SDS011;24384;51.988;4.644;2023-09-18T12:02:57;6.57;;;2.90;;
38629;SDS011;24384;51.988;4.644;2023-09-18T12:05:25;10.20;;;3.15;;
38629;SDS011;24384;51.988;4.644;2023-09-18T12:07:51;7.13;;;3.17;;
38629;SDS011;24384;51.988;4.644;2023-09-18T12:10:17;5.25;;;3.45;;
38629;SDS011;24384;51.988;4.644;2023-09-18T12:12:45;7.10;;;2.88;;
38629;SDS011;24384;51.988;4.644;2023-09-18T12:15:12;8.90;;;3.95;;
38629;SDS011;24384;51.988;4.644;2023-09-18T12:17:40;5.97;;;3.45;;
38629;SDS011;24384;51.988;4.644;2023-09-18T12:20:05;12.10;;;3.10;;
38629;SDS011;24384;51.988;4.644;2023-09-18T12:22:31;5.72;;;2.80;;
38629;SDS011;24384;51.988;4.644;2023-09-18T12:25:14;4.95;;;2.38;;
38629;SDS011;24384;51.988;4.644;2023-09-18T12:27:42;5.15;;;2.65;;
38629;SDS011;24384;51.988;4.644;2023-09-18T12:30:07;6.75;;;2.78;;
38629;SDS011;24384;51.988;4.644;2023-09-18T12:32:35;11.30;;;3.50;;
38629;SDS011;24384;51.988;4.644;2023-09-18T12:35:01;4.68;;;2.80;;
38629;SDS011;24384;51.988;4.644;2023-09-18T12:37:28;10.65;;;2.88;;
38629;SDS011;24384;51.988;4.644;2023-09-18T12:39:53;5.18;;;3.15;;
38629;SDS011;24384;51.988;4.644;2023-09-18T12:42:18;10.38;;;2.88;;
38629;SDS011;24384;51.988;4.644;2023-09-18T12:44:48;7.30;;;2.80;;
38629;SDS011;24384;51.988;4.644;2023-09-18T12:47:15;5.93;;;3.00;;
38629;SDS011;24384;51.988;4.644;2023-09-18T12:49:41;7.18;;;2.92;;
38629;SDS011;24384;51.988;4.644;2023-09-18T12:52:06;3.78;;;2.38;;
38629;SDS011;24384;51.988;4.644;2023-09-18T12:57:07;5.32;;;3.17;;
38629;SDS011;24384;51.988;4.644;2023-09-18T12:59:34;5.82;;;2.47;;
38629;SDS011;24384;51.988;4.644;2023-09-18T13:02:01;11.32;;;3.00;;
38629;SDS011;24384;51.988;4.644;2023-09-18T13:04:29;7.97;;;2.80;;
38629;SDS011;24384;51.988;4.644;2023-09-18T13:07:06;5.85;;;2.83;;
38629;SDS011;24384;51.988;4.644;2023-09-18T13:09:32;5.13;;;2.80;;
38629;SDS011;24384;51.988;4.644;2023-09-18T13:11:57;8.68;;;3.00;;
38629;SDS011;24384;51.988;4.644;2023-09-18T13:14:23;8.20;;;2.72;;
38629;SDS011;24384;51.988;4.644;2023-09-18T13:16:49;8.45;;;2.30;;
38629;SDS011;24384;51.988;4.644;2023-09-18T13:19:15;10.55;;;2.25;;
38629;SDS011;24384;51.988;4.644;2023-09-18T13:21:47;5.47;;;2.35;;
38629;SDS011;24384;51.988;4.644;2023-09-18T13:24:28;5.53;;;2.80;;
38629;SDS011;24384;51.988;4.644;2023-09-18T13:26:54;10.02;;;3.75;;
38629;SDS011;24384;51.988;4.644;2023-09-18T13:29:20;5.13;;;2.80;;
38629;SDS011;24384;51.988;4.644;2023-09-18T13:31:46;7.03;;;3.17;;
38629;SDS011;24384;51.988;4.644;2023-09-18T13:34:11;4.95;;;2.53;;
38629;SDS011;24384;51.988;4.644;2023-09-18T13:36:37;5.05;;;2.92;;
38629;SDS011;24384;51.988;4.644;2023-09-18T13:39:02;9.32;;;2.80;;
38629;SDS011;24384;51.988;4.644;2023-09-18T13:41:28;9.13;;;2.92;;
38629;SDS011;24384;51.988;4.644;2023-09-18T13:43:53;6.47;;;3.28;;
38629;SDS011;24384;51.988;4.644;2023-09-18T13:46:20;7.85;;;3.40;;
38629;SDS011;24384;51.988;4.644;2023-09-18T13:48:46;8.48;;;3.80;;
38629;SDS011;24384;51.988;4.644;2023-09-18T13:51:12;7.03;;;3.08;;
38629;SDS011;24384;51.988;4.644;2023-09-18T13:53:38;9.13;;;3.30;;
38629;SDS011;24384;51.988;4.644;2023-09-18T13:56:04;5.03;;;3.28;;
38629;SDS011;24384;51.988;4.644;2023-09-18T13:58:30;8.00;;;3.40;;
38629;SDS011;24384;51.988;4.644;2023-09-18T14:00:55;13.10;;;2.90;;
38629;SDS011;24384;51.988;4.644;2023-09-18T14:03:22;7.15;;;3.10;;
38629;SDS011;24384;51.988;4.644;2023-09-18T14:05:48;10.70;;;3.53;;
38629;SDS011;24384;51.988;4.644;2023-09-18T14:08:14;7.57;;;2.63;;
38629;SDS011;24384;51.988;4.644;2023-09-18T14:10:39;8.65;;;2.50;;
38629;SDS011;24384;51.988;4.644;2023-09-18T14:13:04;37.63;;;8.35;;
38629;SDS011;24384;51.988;4.644;2023-09-18T14:15:30;7.75;;;2.70;;
38629;SDS011;24384;51.988;4.644;2023-09-18T14:17:55;6.90;;;2.83;;
38629;SDS011;24384;51.988;4.644;2023-09-18T14:20:20;4.57;;;2.70;;
38629;SDS011;24384;51.988;4.644;2023-09-18T14:22:46;6.03;;;2.92;;
38629;SDS011;24384;51.988;4.644;2023-09-18T14:25:14;6.57;;;2.70;;
38629;SDS011;24384;51.988;4.644;2023-09-18T14:27:40;11.00;;;2.90;;
38629;SDS011;24384;51.988;4.644;2023-09-18T14:30:06;7.32;;;3.38;;
38629;SDS011;24384;51.988;4.644;2023-09-18T14:32:33;12.60;;;4.03;;
38629;SDS011;24384;51.988;4.644;2023-09-18T14:35:00;20.15;;;4.97;;
38629;SDS011;24384;51.988;4.644;2023-09-18T14:37:27;5.65;;;2.75;;
38629;SDS011;24384;51.988;4.644;2023-09-18T14:39:53;6.60;;;3.30;;
38629;SDS011;24384;51.988;4.644;2023-09-18T14:42:18;6.88;;;3.55;;
38629;SDS011;24384;51.988;4.644;2023-09-18T14:44:43;6.80;;;3.25;;
38629;SDS011;24384;51.988;4.644;2023-09-18T14:47:10;6.95;;;2.13;;
38629;SDS011;24384;51.988;4.644;2023-09-18T14:49:36;5.65;;;1.80;;